createdAt,value
2019-02-25T00:01:37.812Z,47.08
2019-02-25T00:04:08.377Z,46.71
2019-02-25T00:06:38.931Z,47.10
2019-02-25T00:09:09.530Z,46.31
2019-02-25T00:11:40.445Z,46.20
2019-02-25T00:14:10.809Z,46.34
2019-02-25T00:16:42.027Z,46.11
2019-02-25T00:19:12.357Z,45.99
2019-02-25T00:21:42.745Z,45.66
2019-02-25T00:24:13.058Z,45.67
2019-02-25T00:26:43.482Z,45.38
2019-02-25T00:29:13.882Z,45.26
2019-02-25T00:31:44.337Z,45.18
2019-02-25T00:34:14.697Z,45.44
2019-02-25T00:36:45.449Z,45.12
2019-02-25T00:39:15.945Z,45.12
2019-02-25T00:41:46.439Z,45.16
2019-02-25T00:44:16.864Z,45.16
2019-02-25T00:46:47.546Z,45.11
2019-02-25T00:49:18.483Z,44.99
2019-02-25T00:51:49.329Z,44.88
2019-02-25T00:54:19.784Z,44.83
2019-02-25T00:56:51.201Z,44.77
2019-02-25T00:59:21.621Z,44.63
2019-02-25T01:01:52.082Z,44.59
2019-02-25T01:04:22.585Z,44.94
2019-02-25T01:06:53.095Z,44.82
2019-02-25T01:09:23.574Z,44.66
2019-02-25T01:11:54.061Z,44.65
2019-02-25T01:14:24.485Z,44.69
2019-02-25T01:16:54.887Z,44.82
2019-02-25T01:19:25.320Z,44.85
2019-02-25T01:21:56.093Z,45.01
2019-02-25T01:24:26.418Z,45.09
2019-02-25T01:26:57.270Z,45.19
2019-02-25T01:29:27.606Z,45.00
2019-02-25T01:31:57.942Z,45.04
2019-02-25T01:34:28.445Z,45.35
2019-02-25T01:36:58.949Z,45.71
2019-02-25T01:39:29.384Z,46.01
2019-02-25T01:41:59.956Z,46.32
2019-02-25T01:44:30.507Z,47.07
2019-02-25T01:47:00.962Z,47.59
2019-02-25T01:49:31.360Z,48.67
2019-02-25T01:52:01.800Z,49.46
2019-02-25T01:54:32.345Z,50.08
2019-02-25T01:57:02.899Z,50.75
2019-02-25T01:59:33.493Z,51.14
2019-02-25T02:02:05.610Z,51.73
2019-02-25T02:04:36.135Z,51.98
2019-02-25T02:07:06.543Z,52.27
2019-02-25T02:09:37.126Z,52.31
2019-02-25T02:12:07.515Z,52.39
2019-02-25T02:14:39.084Z,52.40
2019-02-25T02:17:09.652Z,52.10
2019-02-25T02:19:41.009Z,52.11
2019-02-25T02:22:11.410Z,51.75
2019-02-25T02:24:41.793Z,51.29
2019-02-25T02:27:12.248Z,50.89
2019-02-25T02:29:42.717Z,50.50
2019-02-25T02:32:13.056Z,50.13
2019-02-25T02:34:43.496Z,49.24
2019-02-25T02:37:13.909Z,49.19
2019-02-25T02:39:44.384Z,49.11
2019-02-25T02:42:22.074Z,49.07
2019-02-25T02:44:55.394Z,49.31
2019-02-25T02:47:44.454Z,49.23
2019-02-25T02:50:18.378Z,49.17
2019-02-25T02:52:48.800Z,48.80
2019-02-25T02:55:19.391Z,48.55
2019-02-25T02:57:49.733Z,48.47
2019-02-25T03:00:21.074Z,48.75
2019-02-25T03:02:51.474Z,48.67
2019-02-25T03:05:21.895Z,48.69
2019-02-25T03:07:52.408Z,48.66
2019-02-25T03:10:23.039Z,48.54
2019-02-25T03:12:53.373Z,48.49
2019-02-25T03:15:23.842Z,48.30
2019-02-25T03:17:54.207Z,48.21
2019-02-25T03:20:24.612Z,48.29
2019-02-25T03:22:55.097Z,48.01
2019-02-25T03:25:25.432Z,47.98
2019-02-25T03:27:55.879Z,47.96
2019-02-25T03:30:26.344Z,47.84
2019-02-25T03:32:56.825Z,47.68
2019-02-25T03:35:27.251Z,47.54
2019-02-25T03:37:57.675Z,47.56
2019-02-25T03:40:28.121Z,47.55
2019-02-25T03:42:58.608Z,47.71
2019-02-25T03:45:29.614Z,47.59
2019-02-25T03:48:00.073Z,47.66
2019-02-25T03:50:30.590Z,47.69
2019-02-25T03:53:01.100Z,48.24
2019-02-25T03:55:31.587Z,48.45
2019-02-25T03:58:01.964Z,48.70
2019-02-25T04:00:32.372Z,48.53
2019-02-25T04:03:02.806Z,48.43
2019-02-25T04:05:33.433Z,48.53
2019-02-25T04:08:03.981Z,48.62
2019-02-25T04:10:34.429Z,48.46
2019-02-25T04:13:05.651Z,48.54
2019-02-25T04:15:39.679Z,48.57
2019-02-25T04:18:10.125Z,48.57
2019-02-25T04:20:40.533Z,48.80
2019-02-25T04:23:10.992Z,49.27
2019-02-25T04:25:41.396Z,49.63
2019-02-25T04:28:11.857Z,49.52
2019-02-25T04:30:42.318Z,49.60
2019-02-25T04:33:12.803Z,49.26
2019-02-25T04:35:44.368Z,49.26
2019-02-25T04:38:14.852Z,49.18
2019-02-25T04:40:45.270Z,49.37
2019-02-25T04:43:15.807Z,49.43
2019-02-25T04:45:46.225Z,49.36
2019-02-25T04:48:16.734Z,49.44
2019-02-25T04:50:47.276Z,49.42
2019-02-25T04:53:17.764Z,49.54
2019-02-25T04:55:48.184Z,49.64
2019-02-25T04:58:18.675Z,49.78
2019-02-25T05:00:49.068Z,49.89
2019-02-25T05:03:19.518Z,49.96
2019-02-25T05:05:49.947Z,50.06
2019-02-25T05:08:20.332Z,50.10
2019-02-25T05:10:50.780Z,50.10
2019-02-25T05:13:21.358Z,50.05
2019-02-25T05:15:51.747Z,49.98
2019-02-25T05:18:22.155Z,49.94
2019-02-25T05:20:52.570Z,49.65
2019-02-25T05:23:24.015Z,49.66
2019-02-25T05:25:54.443Z,49.77
2019-02-25T05:28:24.869Z,49.45
2019-02-25T05:30:55.352Z,49.42
2019-02-25T05:33:25.732Z,49.32
2019-02-25T05:35:56.139Z,49.18
2019-02-25T05:38:26.676Z,49.03
2019-02-25T05:40:57.296Z,48.95
2019-02-25T05:43:28.310Z,48.98
2019-02-25T05:45:58.771Z,48.94
2019-02-25T05:48:29.274Z,48.83
2019-02-25T05:50:59.735Z,48.86
2019-02-25T05:53:30.134Z,48.95
2019-02-25T05:56:00.527Z,48.98
2019-02-25T05:58:31.019Z,49.04
2019-02-25T06:01:01.446Z,48.81
2019-02-25T06:03:32.045Z,49.04
2019-02-25T06:06:02.463Z,49.46
2019-02-25T06:08:32.851Z,49.83
2019-02-25T06:11:03.310Z,49.96
2019-02-25T06:13:33.770Z,50.52
2019-02-25T06:16:04.144Z,50.34
2019-02-25T06:18:36.293Z,50.34
2019-02-25T06:21:06.686Z,50.79
2019-02-25T06:23:37.214Z,51.32
2019-02-25T06:26:07.664Z,52.10
2019-02-25T06:28:38.211Z,52.71
2019-02-25T06:31:08.585Z,53.27
2019-02-25T06:33:39.052Z,53.82
2019-02-25T06:36:09.477Z,54.29
2019-02-25T06:38:39.893Z,54.26
2019-02-25T06:41:10.592Z,53.63
2019-02-25T06:43:41.042Z,53.24
2019-02-25T06:46:11.452Z,53.26
2019-02-25T06:48:42.174Z,53.72
2019-02-25T06:51:12.675Z,53.90
2019-02-25T06:53:43.205Z,53.78
2019-02-25T06:56:13.533Z,53.25
2019-02-25T06:58:43.923Z,52.50
2019-02-25T07:01:14.415Z,51.76
2019-02-25T07:03:46.652Z,51.08
2019-02-25T07:06:21.434Z,50.40
2019-02-25T07:09:13.635Z,49.61
2019-02-25T07:12:09.318Z,49.18
2019-02-25T07:14:44.579Z,48.68
2019-02-25T07:17:34.250Z,48.42
2019-02-25T07:20:17.804Z,47.70
2019-02-25T07:23:10.224Z,47.06
2019-02-25T07:25:59.588Z,47.04
2019-02-25T07:28:54.760Z,46.43
2019-02-25T07:31:43.501Z,44.92
2019-02-25T07:34:20.188Z,44.92
2019-02-25T07:37:08.159Z,44.54
2019-02-25T07:39:50.646Z,44.28
2019-02-25T07:42:35.662Z,44.12
2019-02-25T07:45:15.012Z,44.01
2019-02-25T07:47:53.986Z,43.97
2019-02-25T07:50:55.335Z,43.74
2019-02-25T07:53:48.643Z,43.62
2019-02-25T07:56:33.289Z,43.29
2019-02-25T07:59:12.655Z,43.11
2019-02-25T08:01:57.488Z,42.78
2019-02-25T08:04:39.004Z,42.78
2019-02-25T08:07:28.332Z,42.77
2019-02-25T08:10:24.081Z,42.02
2019-02-25T08:13:04.765Z,41.97
2019-02-25T08:15:43.614Z,41.73
2019-02-25T08:18:22.199Z,41.24
2019-02-25T08:21:00.092Z,41.04
2019-02-25T08:23:41.453Z,40.88
2019-02-25T08:26:30.741Z,40.64
2019-02-25T08:29:18.602Z,40.43
2019-02-25T08:32:23.978Z,40.75
2019-02-25T08:35:19.216Z,40.13
2019-02-25T08:38:24.823Z,40.11
2019-02-25T08:41:26.806Z,40.39
2019-02-25T08:44:08.626Z,40.39
2019-02-25T08:47:03.134Z,40.27
2019-02-25T08:49:40.477Z,40.52
2019-02-25T08:52:10.987Z,40.32
2019-02-25T08:54:41.456Z,40.35
2019-02-25T08:57:12.055Z,40.32
2019-02-25T08:59:42.924Z,40.60
2019-02-25T09:02:13.564Z,40.76
2019-02-25T09:04:44.076Z,40.65
2019-02-25T09:07:14.474Z,40.49
2019-02-25T09:09:45.050Z,40.54
2019-02-25T09:12:15.496Z,40.32
2019-02-25T09:14:46.017Z,40.45
2019-02-25T09:17:16.498Z,40.72
2019-02-25T09:19:47.033Z,40.47
2019-02-25T09:22:17.454Z,40.32
2019-02-25T09:24:47.958Z,39.94
2019-02-25T09:27:18.661Z,39.41
2019-02-25T09:29:49.110Z,39.16
2019-02-25T09:32:19.636Z,39.13
2019-02-25T09:34:50.119Z,38.55
2019-02-25T09:37:20.591Z,38.50
2019-02-25T09:39:52.020Z,39.11
2019-02-25T09:42:22.802Z,37.45
2019-02-25T09:44:53.232Z,38.14
2019-02-25T09:47:23.741Z,38.60
2019-02-25T09:49:54.273Z,38.19
2019-02-25T09:52:24.759Z,38.46
2019-02-25T09:54:55.365Z,38.86
2019-02-25T09:57:25.833Z,38.90
2019-02-25T09:59:56.429Z,39.38
2019-02-25T10:02:27.116Z,38.71
2019-02-25T10:04:57.600Z,39.40
2019-02-25T10:07:28.014Z,38.97
2019-02-25T10:09:58.885Z,39.31
2019-02-25T10:12:29.357Z,39.36
2019-02-25T10:14:59.859Z,39.70
2019-02-25T10:17:30.330Z,39.74
2019-02-25T10:20:00.872Z,39.36
2019-02-25T10:22:32.848Z,39.49
2019-02-25T10:25:05.126Z,40.28
2019-02-25T10:27:35.630Z,41.10
2019-02-25T10:30:08.874Z,40.94
2019-02-25T10:32:39.313Z,40.94
2019-02-25T10:35:11.119Z,41.83
2019-02-25T10:37:43.826Z,41.10
2019-02-25T10:40:15.547Z,41.58
2019-02-25T10:42:46.736Z,41.58
2019-02-25T10:45:17.842Z,42.20
2019-02-25T10:47:49.464Z,42.48
2019-02-25T10:50:21.055Z,42.58
2019-02-25T10:52:51.703Z,42.76
2019-02-25T10:55:34.129Z,42.70
2019-02-25T10:58:06.185Z,43.59
2019-02-25T11:00:39.442Z,44.49
2019-02-25T11:03:10.722Z,43.82
2019-02-25T11:05:42.792Z,44.35
2019-02-25T11:08:15.091Z,45.04
2019-02-25T11:10:55.747Z,45.34
2019-02-25T11:13:27.625Z,45.25
2019-02-25T11:15:58.302Z,45.63
2019-02-25T11:18:28.929Z,45.76
2019-02-25T11:21:01.182Z,46.25
2019-02-25T11:23:31.484Z,46.65
2019-02-25T11:26:02.265Z,45.49
2019-02-25T11:28:35.639Z,44.81
2019-02-25T11:31:05.688Z,45.14
2019-02-25T11:33:36.078Z,45.74
2019-02-25T11:36:06.599Z,45.80
2019-02-25T11:38:37.464Z,45.99
2019-02-25T11:41:09.484Z,45.14
2019-02-25T11:43:40.082Z,45.37
2019-02-25T11:46:10.829Z,44.96
2019-02-25T11:48:41.318Z,44.82
2019-02-25T11:51:11.744Z,44.75
2019-02-25T11:53:42.240Z,45.69
2019-02-25T11:56:12.783Z,45.31
2019-02-25T11:58:43.273Z,45.71
2019-02-25T12:01:13.889Z,44.93
2019-02-25T12:03:44.460Z,45.38
2019-02-25T12:06:14.958Z,45.20
2019-02-25T12:08:45.549Z,45.66
2019-02-25T12:11:17.127Z,45.75
2019-02-25T12:13:49.594Z,45.52
2019-02-25T12:16:21.736Z,45.78
2019-02-25T12:18:52.208Z,44.98
2019-02-25T12:21:22.770Z,43.12
2019-02-25T12:23:53.306Z,44.65
2019-02-25T12:26:23.903Z,45.60
2019-02-25T12:28:54.463Z,45.53
2019-02-25T12:31:25.109Z,44.35
2019-02-25T12:33:55.465Z,42.50
2019-02-25T12:36:25.917Z,44.80
2019-02-25T12:38:56.441Z,45.94
2019-02-25T12:41:27.398Z,45.52
2019-02-25T12:43:57.804Z,45.32
2019-02-25T12:46:28.254Z,46.06
2019-02-25T12:48:59.590Z,45.69
2019-02-25T12:51:30.118Z,46.07
2019-02-25T12:54:00.519Z,45.89
2019-02-25T12:56:31.252Z,45.82
2019-02-25T12:59:01.727Z,45.68
2019-02-25T13:01:32.307Z,45.81
2019-02-25T13:04:02.662Z,46.87
2019-02-25T13:06:33.132Z,47.31
2019-02-25T13:09:05.066Z,47.86
2019-02-25T13:11:37.115Z,47.66
2019-02-25T13:14:07.454Z,47.39
2019-02-25T13:16:38.227Z,47.38
2019-02-25T13:19:08.633Z,47.02
2019-02-25T13:21:39.112Z,47.52
2019-02-25T13:24:09.970Z,47.48
2019-02-25T13:26:40.394Z,48.47
2019-02-25T13:29:10.804Z,49.87
2019-02-25T13:31:41.420Z,50.25
2019-02-25T13:34:11.846Z,50.55
2019-02-25T13:36:42.402Z,51.51
2019-02-25T13:39:13.073Z,52.23
2019-02-25T13:41:43.859Z,51.74
2019-02-25T13:44:14.232Z,52.26
2019-02-25T13:46:44.680Z,51.95
2019-02-25T13:49:15.355Z,49.94
2019-02-25T13:51:45.950Z,49.10
2019-02-25T13:54:16.459Z,48.79
2019-02-25T13:56:46.929Z,48.46
2019-02-25T13:59:17.420Z,48.07
2019-02-25T14:01:47.832Z,48.26
2019-02-25T14:04:18.263Z,47.16
2019-02-25T14:06:48.992Z,46.91
2019-02-25T14:09:19.408Z,46.91
2019-02-25T14:11:50.814Z,46.90
2019-02-25T14:14:21.440Z,46.85
2019-02-25T14:16:51.963Z,48.06
2019-02-25T14:19:22.385Z,49.14
2019-02-25T14:21:52.819Z,49.03
2019-02-25T14:24:23.785Z,48.47
2019-02-25T14:26:54.630Z,48.58
2019-02-25T14:29:26.475Z,48.73
2019-02-25T14:31:57.967Z,49.20
2019-02-25T14:34:28.666Z,49.34
2019-02-25T14:36:59.852Z,50.09
2019-02-25T14:39:32.952Z,49.90
2019-02-25T14:42:04.281Z,50.88
2019-02-25T14:44:37.903Z,51.20
2019-02-25T14:47:19.822Z,51.44
2019-02-25T14:49:42.782Z,51.43
2019-02-25T14:52:12.764Z,51.79
2019-02-25T14:54:43.287Z,52.09
2019-02-25T14:57:15.590Z,52.27
2019-02-25T14:59:46.178Z,52.45
2019-02-25T15:02:16.881Z,52.32
2019-02-25T15:04:47.523Z,52.52
2019-02-25T15:07:18.166Z,52.72
2019-02-25T15:09:49.348Z,52.70
2019-02-25T15:12:20.750Z,53.02
2019-02-25T15:14:51.464Z,53.20
2019-02-25T15:17:22.806Z,53.31
2019-02-25T15:19:53.263Z,53.42
2019-02-25T15:22:28.026Z,53.83
2019-02-25T15:24:57.108Z,53.90
2019-02-25T15:27:28.371Z,54.23
2019-02-25T15:29:58.868Z,54.37
2019-02-25T15:32:29.549Z,54.62
2019-02-25T15:35:01.483Z,54.69
2019-02-25T15:37:32.034Z,55.16
2019-02-25T15:40:03.921Z,55.22
2019-02-25T15:42:37.202Z,55.50
2019-02-25T15:45:08.671Z,55.68
2019-02-25T15:47:40.014Z,55.79
2019-02-25T15:50:14.690Z,55.86
2019-02-25T15:52:45.648Z,56.00
2019-02-25T15:55:19.517Z,56.34
2019-02-25T15:57:50.410Z,56.72
2019-02-25T16:00:23.471Z,56.79
2019-02-25T16:02:55.849Z,56.72
2019-02-25T16:05:29.570Z,57.01
2019-02-25T16:08:00.613Z,56.97
2019-02-25T16:10:32.086Z,56.78
2019-02-25T16:13:08.239Z,56.82
2019-02-25T16:15:35.312Z,56.96
2019-02-25T16:18:05.785Z,56.96
2019-02-25T16:20:36.422Z,57.20
2019-02-25T16:23:09.469Z,57.36
2019-02-25T16:25:39.822Z,57.25
2019-02-25T16:28:12.572Z,57.30
2019-02-25T16:30:44.540Z,57.36
2019-02-25T16:33:15.050Z,57.50
2019-02-25T16:35:46.198Z,57.78
2019-02-25T16:38:16.842Z,57.94
2019-02-25T16:40:47.648Z,57.91
2019-02-25T16:43:18.935Z,57.88
2019-02-25T16:45:49.521Z,58.09
2019-02-25T16:48:23.636Z,58.13
2019-02-25T16:50:52.963Z,58.09
2019-02-25T16:53:23.530Z,58.22
2019-02-25T16:55:54.286Z,58.40
2019-02-25T16:58:25.466Z,58.51
2019-02-25T17:00:58.549Z,58.66
2019-02-25T17:03:31.650Z,58.83
2019-02-25T17:06:04.113Z,58.88
2019-02-25T17:08:34.555Z,58.94
2019-02-25T17:11:05.974Z,59.17
2019-02-25T17:13:37.105Z,59.16
2019-02-25T17:16:17.895Z,59.35
2019-02-25T17:18:41.089Z,59.46
2019-02-25T17:21:11.862Z,59.89
2019-02-25T17:23:42.302Z,60.11
2019-02-25T17:26:14.955Z,60.25
2019-02-25T17:28:45.391Z,60.50
2019-02-25T17:31:16.336Z,60.63
2019-02-25T17:33:49.285Z,61.04
2019-02-25T17:36:20.309Z,61.15
2019-02-25T17:38:51.974Z,61.33
2019-02-25T17:41:23.544Z,61.67
2019-02-25T17:43:54.881Z,61.76
2019-02-25T17:46:28.850Z,61.87
2019-02-25T17:48:58.963Z,62.17
2019-02-25T17:51:29.498Z,62.44
2019-02-25T17:54:00.131Z,62.77
2019-02-25T17:56:30.587Z,62.98
2019-02-25T17:59:03.782Z,63.35
2019-02-25T18:01:34.526Z,63.53
2019-02-25T18:04:07.141Z,63.77
2019-02-25T18:06:41.456Z,63.90
2019-02-25T18:09:14.262Z,64.21
2019-02-25T18:11:45.395Z,64.50
2019-02-25T18:14:17.611Z,64.71
2019-02-25T18:16:50.823Z,64.85
2019-02-25T18:19:22.616Z,65.24
2019-02-25T18:21:53.178Z,65.47
2019-02-25T18:24:26.794Z,65.84
2019-02-25T18:26:55.899Z,66.43
2019-02-25T18:29:26.402Z,66.77
2019-02-25T18:31:57.139Z,67.39
2019-02-25T18:34:28.044Z,67.57
2019-02-25T18:36:59.691Z,67.85
2019-02-25T18:39:31.621Z,67.90
2019-02-25T18:42:02.236Z,68.48
2019-02-25T18:44:32.598Z,68.83
2019-02-25T18:47:03.000Z,69.21
2019-02-25T18:49:35.016Z,69.08
2019-02-25T18:52:05.995Z,69.10
2019-02-25T18:54:36.921Z,69.19
2019-02-25T18:57:08.015Z,68.90
2019-02-25T18:59:38.477Z,68.47
2019-02-25T19:02:10.291Z,68.13
2019-02-25T19:04:41.788Z,67.98
2019-02-25T19:07:13.412Z,67.89
2019-02-25T19:09:45.241Z,67.90
2019-02-25T19:12:16.898Z,67.84
2019-02-25T19:14:51.070Z,67.58
2019-02-25T19:17:21.046Z,67.64
2019-02-25T19:19:51.720Z,67.36
2019-02-25T19:22:24.579Z,66.97
2019-02-25T19:24:55.064Z,67.07
2019-02-25T19:27:27.777Z,67.22
2019-02-25T19:30:00.705Z,67.54
2019-02-25T19:32:31.389Z,66.89
2019-02-25T19:35:04.022Z,66.47
2019-02-25T19:37:37.687Z,65.97
2019-02-25T19:40:12.135Z,65.40
2019-02-25T19:42:39.819Z,65.70
2019-02-25T19:45:10.896Z,65.24
2019-02-25T19:47:43.282Z,64.88
2019-02-25T19:50:14.846Z,65.19
2019-02-25T19:52:46.687Z,64.90
2019-02-25T19:55:18.388Z,64.34
2019-02-25T19:57:50.265Z,64.44
2019-02-25T20:00:25.724Z,64.22
2019-02-25T20:03:05.125Z,64.04
2019-02-25T20:05:29.260Z,63.89
2019-02-25T20:07:59.741Z,63.78
2019-02-25T20:10:30.747Z,63.80
2019-02-25T20:13:01.087Z,64.39
2019-02-25T20:15:31.679Z,65.00
2019-02-25T20:18:02.157Z,65.29
2019-02-25T20:20:36.435Z,66.70
2019-02-25T20:23:08.568Z,65.75
2019-02-25T20:25:44.447Z,64.81
2019-02-25T20:28:15.845Z,65.15
2019-02-25T20:30:46.896Z,65.15
2019-02-25T20:33:18.300Z,64.99
2019-02-25T20:35:53.056Z,64.91
2019-02-25T20:38:22.800Z,64.62
2019-02-25T20:40:55.359Z,64.44
2019-02-25T20:43:28.262Z,64.10
2019-02-25T20:46:02.911Z,63.83
2019-02-25T20:48:32.679Z,63.50
2019-02-25T20:51:04.762Z,63.31
2019-02-25T20:53:37.681Z,63.03
2019-02-25T20:56:07.736Z,63.02
2019-02-25T20:58:40.039Z,62.62
2019-02-25T21:01:12.110Z,62.51
2019-02-25T21:03:45.825Z,62.31
2019-02-25T21:06:16.740Z,62.26
2019-02-25T21:08:47.160Z,62.20
2019-02-25T21:11:17.656Z,62.28
2019-02-25T21:13:48.177Z,62.50
2019-02-25T21:16:18.787Z,62.60
2019-02-25T21:18:50.926Z,62.71
2019-02-25T21:21:21.287Z,62.91
2019-02-25T21:23:51.820Z,62.86
2019-02-25T21:26:25.471Z,62.74
2019-02-25T21:28:57.896Z,62.76
2019-02-25T21:31:26.671Z,62.95
2019-02-25T21:33:58.786Z,63.00
2019-02-25T21:36:29.555Z,63.26
2019-02-25T21:39:01.880Z,63.55
2019-02-25T21:41:35.017Z,63.75
2019-02-25T21:44:06.125Z,64.06
2019-02-25T21:46:36.549Z,64.64
2019-02-25T21:49:08.412Z,65.32
2019-02-25T21:51:39.952Z,65.26
2019-02-25T21:54:11.353Z,64.81
2019-02-25T21:56:41.830Z,64.42
2019-02-25T21:59:14.975Z,65.17
2019-02-25T22:01:45.582Z,65.49
2019-02-25T22:04:18.056Z,65.49
2019-02-25T22:06:51.002Z,65.38
2019-02-25T22:09:35.460Z,65.00
2019-02-25T22:11:52.552Z,64.69
2019-02-25T22:14:25.513Z,64.68
2019-02-25T22:16:56.603Z,64.60
2019-02-25T22:19:27.644Z,64.23
2019-02-25T22:22:00.236Z,64.25
2019-02-25T22:24:32.079Z,64.48
2019-02-25T22:27:02.465Z,64.59
2019-02-25T22:29:34.872Z,64.13
2019-02-25T22:32:06.492Z,64.01
2019-02-25T22:34:37.935Z,64.14
2019-02-25T22:37:12.397Z,63.89
2019-02-25T22:39:40.993Z,64.04
2019-02-25T22:42:12.188Z,63.71
2019-02-25T22:44:45.154Z,63.65
2019-02-25T22:47:17.816Z,63.61
2019-02-25T22:49:47.855Z,63.56
2019-02-25T22:52:21.840Z,63.41
2019-02-25T22:54:52.139Z,63.29
2019-02-25T22:57:23.631Z,63.22
2019-02-25T22:59:55.288Z,63.39
2019-02-25T23:02:28.049Z,63.57
2019-02-25T23:04:59.780Z,63.25
2019-02-25T23:07:30.374Z,63.02
2019-02-25T23:10:01.174Z,62.98
2019-02-25T23:12:31.897Z,63.07
2019-02-25T23:15:03.849Z,63.34
2019-02-25T23:17:37.574Z,63.49
2019-02-25T23:20:09.523Z,63.46
2019-02-25T23:22:39.920Z,63.92
2019-02-25T23:25:11.567Z,64.32
2019-02-25T23:27:42.085Z,64.34
2019-02-25T23:30:13.778Z,64.51
2019-02-25T23:32:44.408Z,64.62
2019-02-25T23:35:16.471Z,64.46
2019-02-25T23:37:51.045Z,64.83
2019-02-25T23:40:19.748Z,65.52
2019-02-25T23:42:51.288Z,65.69
2019-02-25T23:45:23.171Z,65.40
2019-02-25T23:47:57.612Z,65.02
2019-02-25T23:50:27.947Z,65.00
2019-02-25T23:52:57.982Z,64.96
2019-02-25T23:55:29.662Z,64.91
2019-02-25T23:58:00.207Z,64.97
